RJOT(METAR)
08/12 21:00
METAR RJOT 121200Z 20006KT 9999 FEW030 BKN/// 26/24 Q1007 RMK 1CU030
A2976=
戻る
トップページへ戻る
IMOC Co,.Ltd.